Time;durP1;ratioP1;P1;durP2;ratioP2;P2;SDS_P1;SDS_P2;PMS_P1;PMS_P2;Temp;Humidity;BMP_temperature;BMP_pressure;BME280_temperature;BME280_humidity;BME280_pressure;Samples;Min_cycle;Max_cycle;Signal;HPM_P1;HPM_P2
2023/09/24 00:02:27;;;;;;;3.70;3.10;;;;;;;10.05;98.93;99863.87;436809;1251;140087;-66
2023/09/24 00:12:33;;;;;;;4.90;3.50;;;;;;;10.06;99.11;99873.91;436076;1256;141148;-64
2023/09/24 00:22:39;;;;;;;4.70;3.80;;;;;;;10.08;99.40;99875.95;436139;1251;140114;-69
2023/09/24 00:32:45;;;;;;;5.40;4.80;;;;;;;10.10;99.41;99875.84;435903;1251;139825;-65
2023/09/24 00:42:52;;;;;;;4.70;4.20;;;;;;;10.06;99.45;99875.86;435979;1255;139092;-63
2023/09/24 00:52:58;;;;;;;4.60;4.10;;;;;;;10.04;99.46;99883.16;436263;1256;139212;-67
2023/09/24 01:03:06;;;;;;;4.10;3.80;;;;;;;9.98;99.33;99884.04;435930;1254;139499;-67
2023/09/24 01:13:15;;;;;;;5.30;4.70;;;;;;;9.90;99.28;99896.73;435908;1252;140241;-67
2023/09/24 01:23:21;;;;;;;4.30;4.00;;;;;;;9.83;99.31;99892.90;436488;1255;140934;-67
2023/09/24 01:33:27;;;;;;;4.10;3.70;;;;;;;9.80;99.37;99900.58;435708;1251;139664;-67
2023/09/24 01:43:33;;;;;;;6.20;5.70;;;;;;;9.80;99.67;99909.67;436096;1255;138967;-67
2023/09/24 01:53:40;;;;;;;4.90;4.30;;;;;;;9.84;99.91;99922.20;435975;1251;139419;-67
2023/09/24 02:03:46;;;;;;;4.90;4.50;;;;;;;9.86;99.96;99939.76;436057;1251;139391;-67
2023/09/24 02:13:52;;;;;;;7.70;5.80;;;;;;;9.87;100.00;99961.20;435830;1253;140015;-66
2023/09/24 02:23:59;;;;;;;7.40;5.70;;;;;;;9.89;100.00;99965.29;435608;1251;140091;-66
2023/09/24 02:34:05;;;;;;;7.20;6.60;;;;;;;9.91;100.00;99965.17;436479;1251;139516;-66
2023/09/24 02:44:11;;;;;;;7.00;6.40;;;;;;;9.95;100.00;99987.53;435628;1256;140082;-67
2023/09/24 02:54:17;;;;;;;6.90;6.30;;;;;;;9.93;100.00;100007.60;435593;1255;139257;-67
2023/09/24 03:04:22;;;;;;;6.70;6.10;;;;;;;9.87;100.00;100011.59;435566;1251;140538;-68
2023/09/24 03:14:28;;;;;;;6.70;6.20;;;;;;;9.88;100.00;100031.30;435718;1251;141167;-68
2023/09/24 03:24:34;;;;;;;6.20;5.60;;;;;;;9.89;100.00;100045.94;435729;1251;140419;-68
2023/09/24 03:34:40;;;;;;;8.70;7.10;;;;;;;9.87;100.00;100056.52;435787;1251;140894;-67
2023/09/24 03:44:46;;;;;;;6.80;6.30;;;;;;;9.85;100.00;100063.64;435921;1251;139894;-67
2023/09/24 03:54:52;;;;;;;7.00;6.40;;;;;;;9.83;100.00;100067.41;435810;1255;139852;-67
2023/09/24 04:04:58;;;;;;;7.40;6.70;;;;;;;9.80;100.00;100082.40;436365;1253;141114;-66
2023/09/24 04:15:08;;;;;;;7.10;6.40;;;;;;;9.79;100.00;100080.16;435527;1251;140244;-66
2023/09/24 04:25:15;;;;;;;7.90;7.20;;;;;;;9.79;100.00;100082.08;436732;1251;139769;-68
2023/09/24 04:35:21;;;;;;;7.10;6.30;;;;;;;9.80;100.00;100096.23;436160;1254;139368;-67
2023/09/24 04:45:27;;;;;;;6.60;6.10;;;;;;;9.75;100.00;100104.16;435687;1254;139404;-68
2023/09/24 04:55:33;;;;;;;6.20;5.70;;;;;;;9.76;100.00;100126.17;435853;1253;140925;-67
2023/09/24 05:05:43;;;;;;;6.70;6.10;;;;;;;9.92;100.00;100135.30;436542;1253;140291;-68
2023/09/24 05:15:54;;;;;;;6.40;5.90;;;;;;;10.07;100.00;100151.48;437111;1251;140976;-68
2023/09/24 05:26:00;;;;;;;6.60;5.90;;;;;;;10.27;100.00;100158.81;436498;1251;139598;-67
2023/09/24 05:36:08;;;;;;;5.80;5.40;;;;;;;10.67;100.00;100172.45;436357;1255;140002;-67
2023/09/24 05:46:14;;;;;;;8.00;5.20;;;;;;;11.16;100.00;100187.42;436014;1254;139914;-67
2023/09/24 05:56:20;;;;;;;6.10;5.60;;;;;;;11.71;100.00;100199.89;435858;1254;140600;-68
2023/09/24 06:06:26;;;;;;;6.10;5.50;;;;;;;12.20;100.00;100201.75;436141;1255;139586;-67
2023/09/24 06:16:32;;;;;;;4.70;4.30;;;;;;;12.65;99.94;100212.55;436072;1251;139520;-68
2023/09/24 06:26:40;;;;;;;4.30;3.70;;;;;;;13.23;98.94;100228.73;436202;1255;139549;-68
2023/09/24 06:36:46;;;;;;;6.00;4.00;;;;;;;13.80;98.07;100240.32;436063;1251;139605;-67
2023/09/24 06:46:52;;;;;;;6.30;4.20;;;;;;;14.74;96.98;100251.73;436344;1253;140297;-68
2023/09/24 06:56:58;;;;;;;3.90;3.50;;;;;;;15.51;94.67;100253.40;436083;1251;139272;-68
2023/09/24 07:07:04;;;;;;;4.80;3.50;;;;;;;16.28;92.46;100256.50;436515;1251;140061;-66
2023/09/24 07:17:10;;;;;;;4.00;3.30;;;;;;;16.98;89.65;100270.90;436201;1255;140311;-68
2023/09/24 07:27:16;;;;;;;2.70;2.50;;;;;;;17.84;88.75;100277.02;439218;1253;149928;-68
2023/09/24 07:37:22;;;;;;;3.90;2.50;;;;;;;21.50;88.73;100274.05;435864;1254;139406;-69
2023/09/24 07:47:28;;;;;;;2.40;2.20;;;;;;;26.62;82.48;100283.20;435983;1255;139448;-68
2023/09/24 07:57:34;;;;;;;2.60;2.40;;;;;;;29.22;70.73;100301.06;435913;1254;140167;-66
2023/09/24 08:07:40;;;;;;;5.50;2.90;;;;;;;28.87;64.21;100309.38;436328;1254;139948;-67
2023/09/24 08:17:48;;;;;;;3.00;2.60;;;;;;;28.36;56.20;100313.44;436440;1255;140607;-71
2023/09/24 08:27:54;;;;;;;3.40;2.60;;;;;;;27.25;52.61;100325.58;436640;1251;139193;-70
2023/09/24 08:38:00;;;;;;;3.70;2.70;;;;;;;25.21;52.12;100330.77;436985;1251;138676;-68
2023/09/24 08:48:10;;;;;;;3.00;2.80;;;;;;;23.50;52.87;100333.06;436466;1251;138601;-68
2023/09/24 08:58:17;;;;;;;4.50;2.20;;;;;;;22.36;54.11;100339.80;436135;1254;138598;-73
2023/09/24 09:08:23;;;;;;;4.30;2.50;;;;;;;21.68;55.34;100351.29;435949;1256;139550;-73
2023/09/24 09:18:29;;;;;;;3.00;2.40;;;;;;;21.33;55.92;100364.69;436303;1254;140034;-72
2023/09/24 09:28:36;;;;;;;3.20;2.40;;;;;;;21.43;56.24;100378.17;438056;1253;139149;-72
2023/09/24 09:38:43;;;;;;;3.10;2.10;;;;;;;21.81;56.17;100382.13;437136;1255;138754;-67
2023/09/24 09:48:54;;;;;;;4.30;1.30;;;;;;;21.89;55.78;100380.47;436134;1254;138614;-73
2023/09/24 09:59:02;;;;;;;2.40;1.40;;;;;;;21.97;55.98;100386.05;436552;1253;140254;-73
2023/09/24 10:09:35;;;;;;;3.50;1.30;;;;;;;21.96;55.65;100380.88;436341;1253;138520;-72
2023/09/24 10:19:51;;;;;;;1.70;0.80;;;;;;;21.74;54.67;100392.76;436700;1254;138601;-73
2023/09/24 10:30:14;;;;;;;1.30;1.20;;;;;;;21.39;54.15;100396.30;439577;1253;138851;-74
2023/09/24 10:40:20;;;;;;;1.00;0.80;;;;;;;20.99;54.23;100394.68;436224;1251;139108;-73
2023/09/24 10:50:27;;;;;;;2.30;1.00;;;;;;;20.54;53.96;100398.27;436222;1255;139258;-72
2023/09/24 11:00:35;;;;;;;1.00;0.70;;;;;;;20.23;54.34;100402.76;436140;1254;138995;-72
2023/09/24 11:10:41;;;;;;;0.70;0.70;;;;;;;20.06;54.36;100401.45;436117;1256;138998;-72
2023/09/24 11:20:54;;;;;;;1.90;1.10;;;;;;;20.12;54.43;100398.38;435947;1251;138575;-73
2023/09/24 11:31:00;;;;;;;1.60;1.20;;;;;;;20.41;54.49;100394.45;436681;1254;140275;-72
2023/09/24 11:41:12;;;;;;;1.20;1.10;;;;;;;20.55;54.01;100396.17;435410;1251;138735;-71
2023/09/24 11:51:18;;;;;;;2.80;1.60;;;;;;;20.55;54.01;100393.38;436830;1256;139263;-77
2023/09/24 12:01:24;;;;;;;2.70;1.40;;;;;;;20.69;53.79;100396.05;435822;1252;138844;-69
2023/09/24 12:11:30;;;;;;;5.80;3.10;;;;;;;20.60;53.34;100385.81;437538;1251;139066;-67
2023/09/24 12:21:36;;;;;;;3.20;1.50;;;;;;;20.33;53.77;100384.94;435987;1255;138880;-65
2023/09/24 12:31:42;;;;;;;2.00;1.80;;;;;;;20.19;53.95;100381.37;435293;1256;139084;-60
2023/09/24 12:41:49;;;;;;;2.70;1.20;;;;;;;20.05;53.80;100380.31;435789;1254;139820;-65
2023/09/24 12:51:54;;;;;;;3.50;1.30;;;;;;;19.73;53.69;100379.64;436038;1254;139749;-62
2023/09/24 13:02:00;;;;;;;3.20;1.40;;;;;;;19.55;53.55;100379.13;436005;1254;140030;-62
2023/09/24 13:12:07;;;;;;;2.30;1.50;;;;;;;19.68;53.59;100380.97;436969;1251;139102;-62
2023/09/24 13:22:13;;;;;;;1.90;1.20;;;;;;;19.51;53.02;100392.77;435830;1255;140033;-64
2023/09/24 13:32:20;;;;;;;1.60;1.00;;;;;;;19.35;53.10;100392.46;436016;1255;138755;-68
2023/09/24 13:42:27;;;;;;;2.70;1.10;;;;;;;19.45;53.32;100397.73;435699;1256;139243;-71
2023/09/24 13:52:33;;;;;;;1.50;1.00;;;;;;;19.49;53.06;100402.39;436914;1256;138831;-64
2023/09/24 14:02:41;;;;;;;1.10;0.90;;;;;;;19.59;53.03;100398.31;436160;1256;139493;-66
2023/09/24 14:12:47;;;;;;;0.90;0.90;;;;;;;19.82;52.87;100402.64;436043;1255;139755;-67
2023/09/24 14:22:53;;;;;;;0.90;0.90;;;;;;;19.79;52.02;100406.77;435774;1251;139760;-68
2023/09/24 14:32:59;;;;;;;2.20;1.20;;;;;;;19.68;52.20;100404.21;435759;1251;138433;-67
2023/09/24 14:43:05;;;;;;;3.10;2.10;;;;;;;19.45;52.21;100407.88;436101;1252;138583;-69
2023/09/24 14:53:11;;;;;;;2.70;1.50;;;;;;;19.16;52.78;100414.80;437600;1255;138789;-64
2023/09/24 15:03:17;;;;;;;2.50;1.80;;;;;;;19.05;53.02;100426.81;435789;1256;138627;-64
2023/09/24 15:13:24;;;;;;;3.10;1.40;;;;;;;18.75;53.40;100435.66;436639;1256;139777;-67
2023/09/24 15:23:30;;;;;;;1.60;1.50;;;;;;;18.46;53.82;100438.77;435772;1255;139095;-66
2023/09/24 15:33:35;;;;;;;1.70;1.50;;;;;;;18.21;53.98;100446.72;435711;1256;138532;-68
2023/09/24 15:43:41;;;;;;;2.30;1.20;;;;;;;17.99;54.47;100453.80;436408;1256;141037;-67
2023/09/24 15:53:48;;;;;;;1.80;1.00;;;;;;;17.76;55.05;100454.86;435957;1256;140171;-70
2023/09/24 16:03:56;;;;;;;3.60;1.50;;;;;;;17.40;55.64;100468.05;435805;1257;138931;-73
2023/09/24 16:14:02;;;;;;;1.90;1.50;;;;;;;17.06;56.43;100470.64;435815;1254;138734;-75
2023/09/24 16:24:09;;;;;;;2.00;1.30;;;;;;;16.76;57.26;100479.48;435504;1255;139058;-67
2023/09/24 16:34:15;;;;;;;8.30;6.10;;;;;;;16.43;59.10;100495.48;435220;1256;138761;-66
2023/09/24 16:44:20;;;;;;;2.50;1.90;;;;;;;16.13;60.84;100508.66;435048;1257;138757;-66
2023/09/24 16:54:26;;;;;;;4.20;2.00;;;;;;;15.80;61.56;100515.39;435198;1255;139310;-65
2023/09/24 17:04:33;;;;;;;5.30;2.50;;;;;;;15.40;62.12;100520.76;434862;1257;138966;-66
2023/09/24 17:14:39;;;;;;;4.90;1.80;;;;;;;15.04;63.65;100539.80;434939;1256;138735;-66
2023/09/24 17:24:45;;;;;;;5.00;3.10;;;;;;;14.66;64.89;100551.10;435049;1257;139870;-64
2023/09/24 17:34:52;;;;;;;7.00;2.40;;;;;;;14.33;66.01;100556.91;435025;1257;139428;-64
2023/09/24 17:44:58;;;;;;;8.40;3.80;;;;;;;14.00;67.44;100570.82;435019;1257;139404;-65
2023/09/24 17:55:05;;;;;;;5.80;2.70;;;;;;;13.70;68.41;100585.85;434820;1256;140509;-65
2023/09/24 18:05:12;;;;;;;3.70;2.60;;;;;;;13.40;69.42;100600.46;435121;1256;141800;-65
2023/09/24 18:15:18;;;;;;;5.30;3.00;;;;;;;13.10;70.64;100612.21;435057;1254;141010;-65
2023/09/24 18:25:24;;;;;;;6.80;3.30;;;;;;;12.80;71.64;100629.02;435262;1256;139733;-67
2023/09/24 18:35:29;;;;;;;7.00;4.80;;;;;;;12.51;72.67;100639.21;435158;1256;139867;-66
2023/09/24 18:45:37;;;;;;;4.00;3.20;;;;;;;12.30;73.68;100643.19;435841;1256;139268;-65
2023/09/24 18:55:43;;;;;;;6.60;4.30;;;;;;;12.27;74.79;100645.48;436659;1256;139646;-66
2023/09/24 19:05:50;;;;;;;4.00;3.40;;;;;;;12.36;75.19;100642.36;436203;1257;140919;-65
2023/09/24 19:16:03;;;;;;;4.50;3.50;;;;;;;12.55;75.16;100634.98;436154;1255;140153;-67
2023/09/24 19:26:13;;;;;;;3.00;2.60;;;;;;;12.76;74.89;100627.14;438162;1251;148760;-66
2023/09/24 19:36:19;;;;;;;4.20;3.20;;;;;;;13.07;74.67;100637.89;436127;1256;139677;-66
2023/09/24 19:46:26;;;;;;;3.90;3.20;;;;;;;13.41;74.22;100635.23;436018;1256;140164;-67
2023/09/24 19:56:32;;;;;;;3.20;3.00;;;;;;;13.70;73.64;100626.85;436346;1251;139533;-67
2023/09/24 20:06:38;;;;;;;3.10;2.80;;;;;;;13.91;73.03;100626.81;436291;1256;139915;-66
2023/09/24 20:16:45;;;;;;;4.90;2.70;;;;;;;14.05;72.74;100622.23;435754;1251;140360;-67
2023/09/24 20:26:51;;;;;;;2.90;2.40;;;;;;;14.15;72.36;100633.64;435410;1255;139646;-67
2023/09/24 20:36:57;;;;;;;4.10;3.60;;;;;;;14.16;72.03;100645.37;435626;1251;140020;-66
2023/09/24 20:47:06;;;;;;;2.90;2.70;;;;;;;14.06;71.83;100653.52;435629;1256;139679;-66
2023/09/24 20:57:12;;;;;;;2.50;2.30;;;;;;;13.87;71.75;100656.25;436233;1256;139430;-67
2023/09/24 21:07:18;;;;;;;3.80;2.60;;;;;;;13.71;71.99;100643.12;436195;1255;139482;-66
2023/09/24 21:17:24;;;;;;;2.70;2.50;;;;;;;13.60;72.05;100631.11;436502;1250;140160;-66
2023/09/24 21:27:30;;;;;;;3.10;2.80;;;;;;;13.53;72.13;100636.65;436007;1255;140398;-66
2023/09/24 21:37:36;;;;;;;4.70;3.20;;;;;;;13.45;72.34;100637.27;435895;1254;140538;-67
2023/09/24 21:47:45;;;;;;;2.80;2.60;;;;;;;13.38;72.50;100645.24;436126;1251;140743;-67
2023/09/24 21:57:51;;;;;;;3.10;2.90;;;;;;;13.34;72.77;100644.39;435646;1251;139714;-69
2023/09/24 22:07:57;;;;;;;5.50;4.10;;;;;;;13.34;72.96;100649.16;435970;1255;139889;-68
2023/09/24 22:18:03;;;;;;;3.50;3.20;;;;;;;13.42;73.04;100650.12;436185;1255;139573;-69
2023/09/24 22:28:10;;;;;;;4.20;2.70;;;;;;;13.48;73.00;100654.88;435718;1256;139538;-68
2023/09/24 22:38:16;;;;;;;2.90;2.40;;;;;;;13.57;72.97;100658.02;435977;1255;139472;-68
2023/09/24 22:48:22;;;;;;;3.10;2.30;;;;;;;13.59;72.92;100659.31;436238;1255;140286;-72
2023/09/24 22:58:28;;;;;;;4.00;2.70;;;;;;;13.55;72.93;100672.92;436836;1256;141073;-68
2023/09/24 23:08:34;;;;;;;3.60;3.10;;;;;;;13.56;73.12;100673.41;437091;1254;139199;-69
2023/09/24 23:18:40;;;;;;;3.50;2.60;;;;;;;13.57;73.30;100677.39;436116;1254;140753;-67
2023/09/24 23:28:48;;;;;;;5.00;3.30;;;;;;;13.50;73.39;100681.50;436278;1251;139232;-68
2023/09/24 23:38:52;;;;;;;;;;;;;;;13.34;73.66;100682.21;437267;1251;139664;-68
2023/09/24 23:48:58;;;;;;;4.70;2.30;;;;;;;13.22;74.24;100680.27;435448;1253;127558;-68
2023/09/24 23:59:05;;;;;;;3.50;2.50;;;;;;;13.19;74.75;100683.94;435895;1251;140839;-68
